Mount Moriah, Missouri
Current Conditions -  °F | °C
As of 12:00 PM on Friday 24 Oct 2014 (Local Time) from KLWD Reporting Station
Haze Haze  
Wind Chill: 15°   Ceiling: 300
Heat Index: 15°   Visibility: 1.5mi
Dew Point: 15°   Wind: 12mph
Humidity: 100%   Direction: 180°S
Pressure: 30"   Gusts: NA
Location:  40.33°N, 93.8°W
Report Text: KLWD 241700Z AUTO 18010KT 1 1/2SM BR OVC003 15/15 A3000 RMK AO2 T01500150
Loading
Personal Weather Stations






























Interactive Weather Map
Tropical Storm Tracking
New forecast layout! Learn more

10-Day Weather Forecast

Advertisements
Track Severe Weather on mobile